Time;durP1;ratioP1;P1;durP2;ratioP2;P2;SDS_P1;SDS_P2;PMS_P1;PMS_P2;Temp;Humidity;BMP_temperature;BMP_pressure;BME280_temperature;BME280_humidity;BME280_pressure;Samples;Min_cycle;Max_cycle;Signal;HPM_P1;HPM_P2
2024/01/21 00:02:14;;;;;;;37.50;16.40;;;-0.20;58.20;;;;;;4946829;28;115137;-81
2024/01/21 00:04:41;;;;;;;35.22;16.23;;;-0.20;58.30;;;;;;4917297;28;114248;-81
2024/01/21 00:07:09;;;;;;;36.97;15.88;;;-0.20;58.40;;;;;;4983835;28;113939;-81
2024/01/21 00:09:36;;;;;;;32.40;15.80;;;-0.20;58.50;;;;;;4957368;28;114585;-81
2024/01/21 00:12:05;;;;;;;28.63;15.38;;;-0.20;58.40;;;;;;4949426;28;118041;-81
2024/01/21 00:14:32;;;;;;;28.88;15.50;;;-0.20;58.40;;;;;;4964223;28;114644;-81
2024/01/21 00:17:00;;;;;;;34.83;15.30;;;-0.20;58.50;;;;;;4949000;28;115313;-82
2024/01/21 00:19:27;;;;;;;28.50;15.23;;;-0.10;58.50;;;;;;4946859;28;115230;-81
2024/01/21 00:21:55;;;;;;;33.42;15.18;;;-0.10;58.40;;;;;;4961928;28;115918;-81
2024/01/21 00:24:22;;;;;;;25.20;14.52;;;-0.10;58.30;;;;;;4931374;28;114233;-83
2024/01/21 00:26:50;;;;;;;33.85;14.98;;;-0.20;58.30;;;;;;4946863;28;114899;-82
2024/01/21 00:29:18;;;;;;;34.90;16.10;;;-0.20;58.40;;;;;;4962753;28;115208;-83
2024/01/21 00:31:49;;;;;;;34.45;14.65;;;-0.20;58.40;;;;;;4945859;28;117353;-83
2024/01/21 00:34:16;;;;;;;26.90;13.77;;;-0.20;58.50;;;;;;4946646;28;114436;-82
2024/01/21 00:36:43;;;;;;;30.55;14.57;;;-0.20;58.70;;;;;;4898991;28;114481;-83
2024/01/21 00:39:11;;;;;;;33.28;13.88;;;-0.10;58.80;;;;;;4913584;28;118311;-83
2024/01/21 00:41:39;;;;;;;26.13;13.77;;;-0.10;58.80;;;;;;4898214;28;117194;-83
2024/01/21 00:44:18;;;;;;;30.92;14.30;;;-0.10;58.80;;;;;;4948737;28;114327;-83
2024/01/21 00:46:47;;;;;;;32.92;14.73;;;-0.10;58.80;;;;;;4948788;28;114366;-83
2024/01/21 00:49:15;;;;;;;32.95;14.95;;;-0.10;58.70;;;;;;4947580;28;115192;-82
2024/01/21 00:51:42;;;;;;;30.15;15.68;;;-0.10;58.80;;;;;;4947927;28;114884;-82
2024/01/21 00:54:09;;;;;;;32.28;14.60;;;-0.10;58.80;;;;;;4947464;28;114220;-81
2024/01/21 00:56:37;;;;;;;30.67;14.88;;;-0.10;58.90;;;;;;4947188;28;114395;-82
2024/01/21 00:59:04;;;;;;;27.15;13.77;;;0.00;58.90;;;;;;4945791;28;115622;-82
2024/01/21 01:01:37;;;;;;;33.55;13.02;;;0.00;58.80;;;;;;4962553;28;115493;-81
2024/01/21 01:04:05;;;;;;;23.92;12.93;;;0.00;58.80;;;;;;4948287;28;114282;-81
2024/01/21 01:06:35;;;;;;;30.80;15.00;;;0.00;58.90;;;;;;4947681;28;114536;-81
2024/01/21 01:09:04;;;;;;;30.05;14.23;;;0.00;59.00;;;;;;4962164;28;115064;-82
2024/01/21 01:11:32;;;;;;;25.35;13.27;;;0.00;58.90;;;;;;4947330;28;114745;-82
2024/01/21 01:13:59;;;;;;;28.80;13.63;;;0.00;58.90;;;;;;4948265;28;114301;-81
2024/01/21 01:16:26;;;;;;;27.08;12.82;;;0.10;58.80;;;;;;4947539;28;114257;-81
2024/01/21 01:18:54;;;;;;;29.92;14.52;;;0.10;58.80;;;;;;4946164;28;115167;-82
2024/01/21 01:21:21;;;;;;;27.95;14.40;;;0.10;58.80;;;;;;4957681;28;114941;-82
2024/01/21 01:23:49;;;;;;;24.23;12.88;;;0.10;58.80;;;;;;4982286;28;114301;-83
2024/01/21 01:26:16;;;;;;;28.88;13.68;;;0.10;58.90;;;;;;4982500;28;114343;-82
2024/01/21 01:28:43;;;;;;;28.05;13.00;;;0.10;58.90;;;;;;4981642;28;115152;-82
2024/01/21 01:31:17;;;;;;;26.90;13.80;;;0.10;58.90;;;;;;4981733;28;114794;-82
2024/01/21 01:33:45;;;;;;;26.27;13.30;;;0.20;58.80;;;;;;4966089;28;114432;-82
2024/01/21 01:36:12;;;;;;;29.17;14.85;;;0.10;58.80;;;;;;4967181;28;114465;-83
2024/01/21 01:38:40;;;;;;;30.70;14.27;;;0.10;58.70;;;;;;4981753;28;115283;-83
2024/01/21 01:41:09;;;;;;;27.77;14.57;;;0.10;58.70;;;;;;4965887;28;115050;-82
2024/01/21 01:43:37;;;;;;;30.02;13.40;;;0.10;58.80;;;;;;4965965;28;114753;-81
2024/01/21 01:46:05;;;;;;;28.77;14.32;;;0.10;58.80;;;;;;4966992;28;114791;-81
2024/01/21 01:48:35;;;;;;;31.30;13.85;;;0.10;58.90;;;;;;4980680;28;115560;-82
2024/01/21 01:51:03;;;;;;;33.17;15.00;;;0.10;58.90;;;;;;4965806;28;114649;-81
2024/01/21 01:53:31;;;;;;;28.67;13.75;;;0.10;58.80;;;;;;4971141;28;114067;-81
2024/01/21 01:55:59;;;;;;;30.38;15.05;;;0.10;59.00;;;;;;4974001;28;114186;-81
2024/01/21 01:58:27;;;;;;;29.75;14.70;;;0.10;59.00;;;;;;4966765;28;115210;-81
2024/01/21 02:00:56;;;;;;;33.53;14.98;;;0.10;59.00;;;;;;4981775;28;114585;-83
2024/01/21 02:03:23;;;;;;;28.45;14.88;;;0.10;58.90;;;;;;4965840;28;114419;-83
2024/01/21 02:05:51;;;;;;;29.65;13.50;;;0.10;58.90;;;;;;4982457;28;115190;-82
2024/01/21 02:08:20;;;;;;;24.95;12.52;;;0.10;58.90;;;;;;4983236;28;115228;-83
2024/01/21 02:10:47;;;;;;;29.58;14.88;;;0.10;59.00;;;;;;4966463;28;115010;-81
2024/01/21 02:13:15;;;;;;;28.25;14.45;;;0.10;59.10;;;;;;4965239;28;114513;-81
2024/01/21 02:15:44;;;;;;;31.05;13.30;;;0.10;59.10;;;;;;4966909;28;114415;-81
2024/01/21 02:18:11;;;;;;;29.85;13.70;;;0.20;59.10;;;;;;4964336;28;118251;-82
2024/01/21 02:20:39;;;;;;;28.67;13.25;;;0.10;59.10;;;;;;4965024;28;115198;-82
2024/01/21 02:23:10;;;;;;;26.42;13.77;;;0.10;59.00;;;;;;4947265;28;114370;-81
2024/01/21 02:25:37;;;;;;;28.80;13.38;;;0.10;59.10;;;;;;4961808;28;114354;-82
2024/01/21 02:28:06;;;;;;;27.05;13.55;;;0.10;59.20;;;;;;4945914;28;115018;-82
2024/01/21 02:30:40;;;;;;;30.98;13.40;;;0.10;59.30;;;;;;4946441;28;114836;-82
2024/01/21 02:33:11;;;;;;;24.48;12.32;;;0.20;59.20;;;;;;4945702;28;114505;-82
2024/01/21 02:35:38;;;;;;;24.85;12.23;;;0.20;59.10;;;;;;4960949;28;114479;-82
2024/01/21 02:38:05;;;;;;;27.17;12.18;;;0.20;59.00;;;;;;4945644;28;114789;-82
2024/01/21 02:40:34;;;;;;;22.50;11.63;;;0.20;58.90;;;;;;4944718;28;115763;-82
2024/01/21 02:43:03;;;;;;;27.42;12.73;;;0.20;58.80;;;;;;4945854;28;114737;-82
2024/01/21 02:45:31;;;;;;;22.55;12.07;;;0.10;58.60;;;;;;4953584;28;114332;-82
2024/01/21 02:47:58;;;;;;;25.20;13.20;;;0.10;58.70;;;;;;4965254;28;115107;-82
2024/01/21 02:50:26;;;;;;;24.98;12.02;;;0.10;58.50;;;;;;4964132;28;114673;-82
2024/01/21 02:53:01;;;;;;;22.50;11.23;;;0.00;58.50;;;;;;4965037;28;114270;-81
2024/01/21 02:55:28;;;;;;;21.42;11.88;;;0.00;58.50;;;;;;4966797;28;114444;-82
2024/01/21 02:57:55;;;;;;;18.27;10.52;;;0.00;58.40;;;;;;4965278;28;115143;-82
2024/01/21 03:00:23;;;;;;;25.63;12.07;;;-0.10;58.30;;;;;;4965498;28;114624;-82
2024/01/21 03:02:52;;;;;;;24.48;11.07;;;-0.20;58.30;;;;;;4965757;28;114377;-83
2024/01/21 03:05:19;;;;;;;21.73;10.68;;;-0.10;58.40;;;;;;4965007;28;114149;-82
2024/01/21 03:07:51;;;;;;;23.50;11.65;;;-0.20;58.30;;;;;;4964922;28;115122;-81
2024/01/21 03:10:18;;;;;;;21.83;11.48;;;-0.20;58.30;;;;;;4963939;28;116653;-82
2024/01/21 03:12:49;;;;;;;22.20;11.70;;;-0.20;58.10;;;;;;4966171;28;114261;-82
2024/01/21 03:15:26;;;;;;;24.70;11.57;;;-0.30;58.20;;;;;;4965721;28;114324;-81
2024/01/21 03:17:53;;;;;;;24.02;11.82;;;-0.30;58.40;;;;;;4965197;28;115081;-80
2024/01/21 03:20:21;;;;;;;22.50;12.05;;;-0.30;58.50;;;;;;4964208;28;114524;-81
2024/01/21 03:22:48;;;;;;;22.95;12.05;;;-0.20;58.60;;;;;;4948325;28;114446;-81
2024/01/21 03:25:15;;;;;;;24.08;10.82;;;-0.20;58.60;;;;;;4948338;28;114828;-81
2024/01/21 03:27:43;;;;;;;29.85;12.27;;;-0.20;58.70;;;;;;4962305;28;118760;-82
2024/01/21 03:30:14;;;;;;;23.85;11.88;;;-0.10;58.70;;;;;;4965188;28;114556;-82
2024/01/21 03:32:42;;;;;;;27.15;12.82;;;-0.10;58.90;;;;;;4966107;28;114213;-81
2024/01/21 03:35:11;;;;;;;23.90;12.98;;;0.00;58.90;;;;;;4965419;28;114314;-81
2024/01/21 03:37:38;;;;;;;28.67;12.95;;;0.00;59.00;;;;;;4988892;28;113868;-82
2024/01/21 03:40:06;;;;;;;26.70;12.75;;;0.10;59.00;;;;;;4955851;28;114276;-80
2024/01/21 03:42:34;;;;;;;25.30;11.90;;;0.10;59.10;;;;;;4966123;28;114231;-82
2024/01/21 03:45:05;;;;;;;23.70;12.20;;;0.10;59.00;;;;;;4949252;28;114705;-81
2024/01/21 03:47:33;;;;;;;26.88;12.93;;;0.10;59.10;;;;;;4963992;28;115203;-81
2024/01/21 03:50:01;;;;;;;24.23;11.32;;;0.20;59.00;;;;;;4964790;28;115229;-82
2024/01/21 03:52:28;;;;;;;24.00;12.80;;;0.20;59.00;;;;;;4965303;28;114334;-82
2024/01/21 03:54:55;;;;;;;23.33;12.15;;;0.20;59.00;;;;;;4948329;28;114293;-82
2024/01/21 03:57:23;;;;;;;26.42;13.30;;;0.20;59.00;;;;;;4964999;28;115294;-81
2024/01/21 03:59:50;;;;;;;26.27;12.98;;;0.30;58.90;;;;;;4950248;28;117866;-81
2024/01/21 04:02:19;;;;;;;32.30;13.68;;;0.30;59.00;;;;;;4967890;28;114251;-82
2024/01/21 04:04:47;;;;;;;27.55;13.15;;;0.40;58.90;;;;;;4968715;28;114240;-82
2024/01/21 04:07:14;;;;;;;26.70;13.07;;;0.30;58.70;;;;;;4967665;28;116361;-81
2024/01/21 04:09:41;;;;;;;26.65;12.43;;;0.40;58.60;;;;;;4966988;28;114907;-82
2024/01/21 04:12:11;;;;;;;24.85;12.80;;;0.30;58.70;;;;;;4967634;28;114648;-82
2024/01/21 04:14:38;;;;;;;25.73;12.48;;;0.30;58.80;;;;;;4967552;28;114316;-82
2024/01/21 04:17:06;;;;;;;28.30;13.32;;;0.20;58.80;;;;;;4967237;28;115674;-82
2024/01/21 04:19:33;;;;;;;27.85;12.90;;;0.20;58.80;;;;;;4967661;28;114554;-82
2024/01/21 04:22:01;;;;;;;24.33;11.82;;;0.20;58.80;;;;;;4974643;28;114307;-82
2024/01/21 04:24:28;;;;;;;23.00;12.73;;;0.20;58.90;;;;;;4972341;28;114260;-82
2024/01/21 04:26:56;;;;;;;25.13;12.05;;;0.20;58.90;;;;;;4967049;28;117290;-82
2024/01/21 04:29:24;;;;;;;23.83;12.50;;;0.20;58.90;;;;;;4966254;28;114635;-81
2024/01/21 04:31:51;;;;;;;22.92;12.52;;;0.30;59.00;;;;;;4935223;28;114308;-82
2024/01/21 04:34:18;;;;;;;23.30;12.73;;;0.30;59.00;;;;;;4973392;28;114713;-83
2024/01/21 04:36:46;;;;;;;28.10;12.55;;;0.30;58.90;;;;;;4973913;28;115079;-82
2024/01/21 04:39:18;;;;;;;23.92;12.52;;;0.30;59.00;;;;;;4967858;28;115083;-82
2024/01/21 04:41:46;;;;;;;23.75;11.15;;;0.40;59.00;;;;;;4967885;28;114302;-81
2024/01/21 04:44:14;;;;;;;24.83;12.63;;;0.30;58.90;;;;;;4967022;28;114363;-82
2024/01/21 04:46:41;;;;;;;26.75;12.20;;;0.30;58.80;;;;;;4967009;28;115319;-82
2024/01/21 04:49:09;;;;;;;26.80;12.40;;;0.40;58.90;;;;;;4967342;28;114585;-82
2024/01/21 04:51:37;;;;;;;24.23;11.43;;;0.40;58.80;;;;;;4950463;28;114334;-82
2024/01/21 04:54:05;;;;;;;27.63;12.25;;;0.30;58.80;;;;;;4968231;28;114537;-83
2024/01/21 04:56:33;;;;;;;24.85;12.18;;;0.30;58.80;;;;;;4967097;28;115034;-82
2024/01/21 04:59:00;;;;;;;23.05;11.13;;;0.40;58.80;;;;;;4966097;28;114663;-82
2024/01/21 05:01:28;;;;;;;26.20;12.60;;;0.30;58.80;;;;;;4950334;28;114453;-82
2024/01/21 05:03:55;;;;;;;28.20;11.45;;;0.30;59.00;;;;;;4966603;28;114308;-83
2024/01/21 05:06:25;;;;;;;25.55;12.63;;;0.30;59.00;;;;;;4966336;28;115615;-83
2024/01/21 05:08:52;;;;;;;27.77;10.93;;;0.30;58.90;;;;;;4966368;28;114682;-81
2024/01/21 05:11:20;;;;;;;20.05;9.43;;;0.30;58.90;;;;;;4950398;28;114232;-81
2024/01/21 05:13:47;;;;;;;22.90;10.60;;;0.30;59.00;;;;;;4966412;28;114561;-81
2024/01/21 05:16:19;;;;;;;23.83;11.77;;;0.40;59.00;;;;;;4966809;28;115394;-81
2024/01/21 05:18:47;;;;;;;26.00;11.65;;;0.40;59.10;;;;;;4967789;28;114674;-82
2024/01/21 05:21:20;;;;;;;23.35;11.52;;;0.40;59.00;;;;;;4991016;28;113909;-82
2024/01/21 05:23:50;;;;;;;21.02;11.93;;;0.40;59.00;;;;;;4974451;28;114643;-81
2024/01/21 05:26:17;;;;;;;26.75;11.38;;;0.40;59.10;;;;;;4966750;28;114510;-81
2024/01/21 05:28:46;;;;;;;23.00;10.68;;;0.40;59.10;;;;;;4966553;28;115126;-81
2024/01/21 05:31:14;;;;;;;22.98;10.52;;;0.40;59.10;;;;;;4965610;28;114351;-81
2024/01/21 05:33:41;;;;;;;22.90;11.45;;;0.40;59.10;;;;;;4966127;28;114557;-82
2024/01/21 05:36:10;;;;;;;19.17;9.68;;;0.40;59.20;;;;;;4965017;28;115514;-81
2024/01/21 05:38:40;;;;;;;20.17;10.10;;;0.40;59.20;;;;;;4966220;28;115110;-81
2024/01/21 05:41:08;;;;;;;24.33;11.13;;;0.40;59.20;;;;;;4966321;28;114343;-82
2024/01/21 05:43:35;;;;;;;24.40;11.30;;;0.40;59.10;;;;;;4966042;28;114645;-82
2024/01/21 05:46:02;;;;;;;20.50;10.88;;;0.40;59.00;;;;;;4965101;28;115089;-82
2024/01/21 05:48:30;;;;;;;23.02;10.73;;;0.40;59.00;;;;;;4966647;28;115536;-82
2024/01/21 05:50:57;;;;;;;20.42;10.45;;;0.40;59.10;;;;;;4967333;28;114298;-82
2024/01/21 05:53:24;;;;;;;20.33;9.70;;;0.30;59.10;;;;;;4965934;28;114426;-82
2024/01/21 05:55:52;;;;;;;21.88;10.65;;;0.30;59.10;;;;;;4964483;28;115095;-81
2024/01/21 05:58:20;;;;;;;18.60;9.90;;;0.30;58.90;;;;;;4964951;28;114583;-82
2024/01/21 06:00:47;;;;;;;25.55;11.00;;;0.30;59.00;;;;;;4965583;28;114423;-81
2024/01/21 06:03:17;;;;;;;21.90;10.30;;;0.20;59.00;;;;;;4967061;28;114144;-80
2024/01/21 06:05:44;;;;;;;23.67;11.38;;;0.20;59.10;;;;;;4965884;28;115108;-80
2024/01/21 06:08:12;;;;;;;21.98;10.55;;;0.30;58.90;;;;;;4965043;28;114911;-81
2024/01/21 06:10:39;;;;;;;19.52;9.60;;;0.20;58.90;;;;;;4966804;28;114291;-81
2024/01/21 06:13:06;;;;;;;17.35;9.23;;;0.20;58.80;;;;;;4949509;28;114698;-82
2024/01/21 06:15:33;;;;;;;20.33;10.23;;;0.20;58.90;;;;;;4965578;28;116318;-81
2024/01/21 06:18:01;;;;;;;20.17;9.93;;;0.10;58.90;;;;;;4964582;28;114794;-81
2024/01/21 06:20:28;;;;;;;21.15;9.10;;;0.20;58.90;;;;;;4964547;28;114376;-81
2024/01/21 06:22:56;;;;;;;18.73;9.27;;;0.20;58.90;;;;;;4965371;28;114496;-81
2024/01/21 06:25:24;;;;;;;17.67;9.38;;;0.30;59.00;;;;;;4964548;28;115027;-81
2024/01/21 06:27:51;;;;;;;20.02;9.55;;;0.30;58.90;;;;;;4964869;28;115294;-82
2024/01/21 06:30:21;;;;;;;20.95;10.80;;;0.40;58.70;;;;;;4948994;28;114369;-81
2024/01/21 06:32:49;;;;;;;19.10;9.57;;;0.40;58.60;;;;;;4966416;28;114288;-82
2024/01/21 06:35:29;;;;;;;19.52;10.55;;;0.40;58.60;;;;;;4965618;28;115404;-82
2024/01/21 06:37:56;;;;;;;23.20;10.05;;;0.30;58.70;;;;;;4948616;28;114527;-81
2024/01/21 06:40:23;;;;;;;24.13;10.02;;;0.40;58.80;;;;;;4965256;28;114367;-81
2024/01/21 06:42:51;;;;;;;22.88;11.20;;;0.40;58.80;;;;;;4965408;28;114274;-81
2024/01/21 06:45:24;;;;;;;20.52;9.52;;;0.50;58.90;;;;;;4964179;28;115159;-82
2024/01/21 06:47:51;;;;;;;21.95;10.38;;;0.50;58.90;;;;;;4948618;28;114729;-81
2024/01/21 06:50:23;;;;;;;20.75;9.45;;;0.50;58.90;;;;;;4965201;28;114459;-81
2024/01/21 06:52:50;;;;;;;19.25;9.82;;;0.50;59.10;;;;;;4968886;28;114401;-82
2024/01/21 06:55:18;;;;;;;18.75;9.15;;;0.50;59.10;;;;;;4949236;28;115207;-83
2024/01/21 06:57:48;;;;;;;19.90;10.35;;;0.60;59.10;;;;;;4980879;28;114613;-82
2024/01/21 07:00:18;;;;;;;24.42;11.00;;;0.60;59.00;;;;;;4964691;28;114609;-82
2024/01/21 07:02:47;;;;;;;23.15;11.65;;;0.60;58.90;;;;;;4950335;28;114552;-81
2024/01/21 07:05:16;;;;;;;26.20;10.52;;;0.60;58.80;;;;;;4948137;28;117631;-82
2024/01/21 07:07:44;;;;;;;22.40;10.18;;;0.60;58.80;;;;;;4970069;28;114657;-82
2024/01/21 07:10:14;;;;;;;23.05;10.18;;;0.60;58.90;;;;;;4979087;28;114025;-81
2024/01/21 07:12:42;;;;;;;24.33;9.60;;;0.60;58.80;;;;;;4971159;28;114387;-82
2024/01/21 07:15:10;;;;;;;22.38;10.23;;;0.60;58.80;;;;;;4949425;28;119108;-81
2024/01/21 07:17:39;;;;;;;19.58;9.52;;;0.60;58.70;;;;;;4964822;28;114520;-83
2024/01/21 07:20:10;;;;;;;25.80;10.85;;;0.60;58.70;;;;;;4966258;28;114377;-80
2024/01/21 07:22:38;;;;;;;24.60;10.80;;;0.60;58.80;;;;;;4981331;28;114359;-82
2024/01/21 07:25:05;;;;;;;20.98;11.38;;;0.70;58.80;;;;;;4964048;28;115349;-81
2024/01/21 07:27:34;;;;;;;20.58;11.02;;;0.70;58.70;;;;;;4964738;28;115020;-81
2024/01/21 07:30:03;;;;;;;22.17;10.48;;;0.60;58.60;;;;;;4964681;28;114622;-81
2024/01/21 07:32:30;;;;;;;24.90;11.65;;;0.70;58.70;;;;;;4967656;28;114343;-81
2024/01/21 07:34:58;;;;;;;23.73;11.88;;;0.70;58.70;;;;;;4950429;28;115023;-81
2024/01/21 07:37:25;;;;;;;19.17;10.98;;;0.60;58.60;;;;;;4967063;28;114668;-82
2024/01/21 07:39:56;;;;;;;22.60;12.00;;;0.70;58.60;;;;;;4947710;28;116981;-82
2024/01/21 07:42:26;;;;;;;25.17;11.77;;;0.70;58.50;;;;;;4952183;28;117657;-82
2024/01/21 07:44:53;;;;;;;25.42;12.00;;;0.60;58.30;;;;;;4955657;28;115239;-81
2024/01/21 07:47:20;;;;;;;25.50;11.70;;;0.60;58.40;;;;;;4936915;28;114722;-82
2024/01/21 07:49:51;;;;;;;23.90;11.73;;;0.60;58.40;;;;;;4969304;28;114626;-82
2024/01/21 07:52:20;;;;;;;24.80;12.65;;;0.60;58.50;;;;;;4970426;28;114741;-82
2024/01/21 07:54:51;;;;;;;26.15;13.00;;;0.60;58.40;;;;;;4955914;28;115134;-82
2024/01/21 07:57:19;;;;;;;22.13;12.10;;;0.60;58.40;;;;;;4956974;28;115415;-82
2024/01/21 07:59:49;;;;;;;23.52;11.68;;;0.60;58.50;;;;;;4956049;28;114495;-82
2024/01/21 08:02:19;;;;;;;28.13;12.40;;;0.70;58.50;;;;;;4972733;28;114644;-82
2024/01/21 08:04:46;;;;;;;29.48;13.40;;;0.70;58.40;;;;;;4953829;28;115638;-82
2024/01/21 08:07:14;;;;;;;25.08;12.65;;;0.80;58.50;;;;;;4938019;28;118109;-82
2024/01/21 08:09:42;;;;;;;32.20;15.18;;;0.80;58.50;;;;;;4939934;28;114481;-82
2024/01/21 08:12:09;;;;;;;28.80;14.13;;;0.90;58.50;;;;;;4955966;28;114752;-82
2024/01/21 08:14:36;;;;;;;30.35;14.85;;;1.00;58.60;;;;;;4954437;28;115539;-82
2024/01/21 08:17:03;;;;;;;35.65;16.67;;;1.00;58.50;;;;;;4955242;28;117126;-82
2024/01/21 08:19:36;;;;;;;35.83;16.67;;;1.10;58.50;;;;;;4953719;28;114603;-82
2024/01/21 08:22:04;;;;;;;44.70;20.15;;;1.10;58.60;;;;;;4955450;28;114872;-82
2024/01/21 08:24:34;;;;;;;46.05;20.65;;;1.10;58.60;;;;;;4955244;28;115053;-83
2024/01/21 08:27:06;;;;;;;43.22;18.88;;;1.20;58.60;;;;;;4956050;28;114695;-83
2024/01/21 08:29:34;;;;;;;36.38;16.77;;;1.30;58.60;;;;;;4969562;28;114823;-83
2024/01/21 08:32:03;;;;;;;33.88;15.43;;;1.40;58.60;;;;;;4965102;28;114481;-83
2024/01/21 08:34:33;;;;;;;32.17;17.13;;;1.40;58.50;;;;;;4959084;28;115508;-82
2024/01/21 08:37:01;;;;;;;35.05;15.68;;;1.50;58.50;;;;;;4957597;28;114563;-82
2024/01/21 08:39:29;;;;;;;29.45;15.82;;;1.60;59.00;;;;;;4956129;28;114504;-83
2024/01/21 08:41:56;;;;;;;28.48;13.10;;;1.60;59.10;;;;;;4956060;28;114793;-81
2024/01/21 08:44:23;;;;;;;31.63;15.60;;;1.70;59.70;;;;;;4953699;28;115283;-83
2024/01/21 08:46:51;;;;;;;27.25;12.43;;;1.90;59.50;;;;;;4954295;28;118130;-83
2024/01/21 08:49:22;;;;;;;24.15;12.80;;;2.10;58.90;;;;;;4955762;28;114554;-83
2024/01/21 08:51:50;;;;;;;23.00;12.93;;;2.20;58.50;;;;;;4953815;28;115082;-83
2024/01/21 08:54:17;;;;;;;23.23;11.88;;;2.30;58.10;;;;;;4952881;28;116117;-82
2024/01/21 08:56:48;;;;;;;24.13;12.25;;;2.40;57.70;;;;;;4960565;28;115865;-83
2024/01/21 08:59:16;;;;;;;21.80;12.38;;;2.50;57.50;;;;;;4973134;28;114235;-83
2024/01/21 09:01:43;;;;;;;25.85;12.10;;;2.50;57.50;;;;;;4948697;28;115401;-83
2024/01/21 09:04:11;;;;;;;24.90;12.68;;;2.60;57.30;;;;;;4966602;28;116204;-83
2024/01/21 09:06:48;;;;;;;24.63;12.07;;;2.70;57.20;;;;;;4980543;28;114745;-83
2024/01/21 09:09:17;;;;;;;28.63;12.68;;;2.70;57.00;;;;;;4983090;28;114269;-83
2024/01/21 09:11:47;;;;;;;22.08;11.65;;;2.70;56.80;;;;;;4964495;28;115012;-83
2024/01/21 09:14:20;;;;;;;22.85;12.85;;;2.70;56.60;;;;;;4962259;28;115024;-84
2024/01/21 09:16:48;;;;;;;22.23;11.10;;;2.70;56.60;;;;;;4980191;28;115288;-83
2024/01/21 09:19:18;;;;;;;22.67;12.45;;;2.80;56.50;;;;;;4948843;28;114400;-83
2024/01/21 09:21:46;;;;;;;21.92;12.23;;;2.80;56.40;;;;;;4964212;28;114650;-83
2024/01/21 09:24:14;;;;;;;21.92;11.23;;;2.80;56.30;;;;;;4948362;28;115870;-83
2024/01/21 09:26:42;;;;;;;22.52;12.48;;;2.80;56.30;;;;;;4963380;28;114787;-82
2024/01/21 09:29:09;;;;;;;23.95;11.85;;;2.80;56.30;;;;;;4959514;28;114444;-82
2024/01/21 09:31:39;;;;;;;21.50;10.45;;;2.90;56.30;;;;;;4967569;28;114878;-82
2024/01/21 09:34:07;;;;;;;19.83;11.45;;;3.00;56.00;;;;;;4964189;28;115927;-82
2024/01/21 09:36:35;;;;;;;20.88;11.27;;;3.10;56.20;;;;;;4980302;28;114809;-82
2024/01/21 09:39:06;;;;;;;23.75;10.85;;;3.00;56.30;;;;;;4964544;28;114342;-82
2024/01/21 09:41:43;;;;;;;21.30;10.90;;;3.10;56.20;;;;;;4981748;28;114630;-84
2024/01/21 09:44:13;;;;;;;22.75;11.40;;;3.20;56.10;;;;;;4957185;28;115735;-82
2024/01/21 09:46:43;;;;;;;23.10;12.32;;;3.20;56.20;;;;;;4967717;28;115262;-83
2024/01/21 09:49:14;;;;;;;24.65;12.68;;;3.30;56.00;;;;;;4933137;28;114420;-81
2024/01/21 09:51:45;;;;;;;35.25;14.35;;;3.30;55.80;;;;;;4961911;28;114649;-83
2024/01/21 09:54:20;;;;;;;27.42;14.60;;;3.30;55.40;;;;;;4907992;28;119129;-84
2024/01/21 09:56:48;;;;;;;25.67;13.38;;;3.30;55.30;;;;;;4964225;28;115970;-83
2024/01/21 09:59:16;;;;;;;25.10;14.07;;;3.20;55.00;;;;;;4945492;28;114359;-83
2024/01/21 10:01:45;;;;;;;24.70;13.00;;;3.20;55.30;;;;;;4944894;28;114439;-81
2024/01/21 10:04:20;;;;;;;23.98;12.18;;;3.30;55.30;;;;;;4959513;28;117804;-84
2024/01/21 10:06:51;;;;;;;25.77;11.10;;;3.40;55.20;;;;;;4948357;28;118154;-83
2024/01/21 10:09:27;;;;;;;22.02;10.63;;;3.40;54.80;;;;;;4949211;28;114606;-84
2024/01/21 10:11:59;;;;;;;21.30;11.93;;;3.40;55.00;;;;;;4947238;28;114650;-84
2024/01/21 10:14:31;;;;;;;18.63;9.40;;;3.40;54.90;;;;;;4958650;28;117656;-82
2024/01/21 10:16:59;;;;;;;22.80;10.07;;;3.50;54.80;;;;;;4943444;28;116285;-82
2024/01/21 10:19:35;;;;;;;18.67;9.70;;;3.50;55.10;;;;;;4931774;28;114696;-81
2024/01/21 10:22:40;;;;;;;22.02;9.77;;;3.60;54.90;;;;;;4948390;28;114598;-83
2024/01/21 10:25:34;;;;;;;22.83;9.70;;;3.70;54.80;;;;;;4943353;28;116238;-84
2024/01/21 10:28:05;;;;;;;20.48;9.30;;;3.70;54.10;;;;;;4961628;28;118335;-84
2024/01/21 10:30:46;;;;;;;25.40;12.02;;;3.70;54.10;;;;;;4963756;28;114450;-84
2024/01/21 10:33:14;;;;;;;23.98;11.77;;;3.70;54.10;;;;;;4964518;28;114975;-83
2024/01/21 10:35:58;;;;;;;22.53;11.63;;;3.80;53.90;;;;;;4930183;28;119157;-83
2024/01/21 10:38:50;;;;;;;23.27;12.07;;;3.80;54.20;;;;;;4919346;28;117290;-84
2024/01/21 10:41:31;;;;;;;26.88;13.45;;;3.90;54.10;;;;;;5391627;23;116563;-82
2024/01/21 10:44:07;;;;;;;32.85;14.15;;;3.90;53.90;;;;;;4853183;28;114587;-83
2024/01/21 10:46:48;;;;;;;28.27;14.55;;;4.00;54.10;;;;;;4848436;28;116781;-81
2024/01/21 10:49:16;;;;;;;27.00;13.90;;;4.00;54.10;;;;;;4885642;28;114162;-83
2024/01/21 10:51:43;;;;;;;25.63;13.30;;;4.10;54.00;;;;;;4856228;28;114916;-83
2024/01/21 10:54:11;;;;;;;27.25;13.82;;;4.10;54.00;;;;;;4852454;28;114515;-82
2024/01/21 10:56:43;;;;;;;24.85;13.02;;;4.10;54.00;;;;;;4836587;28;115651;-81
2024/01/21 10:59:13;;;;;;;24.55;13.98;;;4.20;54.00;;;;;;4850473;28;117838;-83
2024/01/21 11:01:43;;;;;;;24.45;14.88;;;4.20;53.90;;;;;;4852025;28;114518;-82
2024/01/21 11:04:13;;;;;;;29.42;13.88;;;4.20;54.00;;;;;;4837103;28;114704;-83
2024/01/21 11:06:51;;;;;;;28.52;13.90;;;4.20;53.80;;;;;;4837963;28;116222;-83
2024/01/21 11:09:23;;;;;;;25.05;13.95;;;4.20;53.80;;;;;;4812664;28;116644;-83
2024/01/21 11:11:51;;;;;;;26.08;14.90;;;4.30;53.90;;;;;;4870633;28;114672;-84
2024/01/21 11:14:36;;;;;;;29.35;14.98;;;4.30;53.80;;;;;;4870630;28;114534;-83
2024/01/21 11:17:10;;;;;;;25.92;13.57;;;4.30;53.80;;;;;;4853644;28;115761;-82
2024/01/21 11:19:42;;;;;;;25.17;13.43;;;4.30;53.70;;;;;;4870618;28;114896;-82
2024/01/21 11:22:15;;;;;;;26.40;14.10;;;4.30;53.60;;;;;;4871067;28;114509;-82
2024/01/21 11:24:45;;;;;;;27.90;13.45;;;4.30;53.40;;;;;;4825336;28;115127;-82
2024/01/21 11:27:24;;;;;;;30.95;14.90;;;4.30;53.50;;;;;;4824201;28;117947;-82
2024/01/21 11:30:09;;;;;;;24.15;12.80;;;4.20;53.40;;;;;;4869588;28;117617;-83
2024/01/21 11:32:57;;;;;;;26.63;13.32;;;4.30;53.70;;;;;;4825563;28;114415;-83
2024/01/21 11:35:28;;;;;;;26.52;14.13;;;4.30;53.70;;;;;;4855700;28;115581;-84
2024/01/21 11:38:00;;;;;;;27.00;14.00;;;4.20;53.80;;;;;;4854241;28;116496;-82
2024/01/21 11:40:31;;;;;;;25.20;13.48;;;4.30;53.60;;;;;;4869548;28;114820;-82
2024/01/21 11:43:01;;;;;;;30.35;14.57;;;4.40;53.70;;;;;;4870896;28;114575;-83
2024/01/21 11:45:49;;;;;;;24.85;12.45;;;4.30;53.60;;;;;;4844916;28;114739;-82
2024/01/21 11:48:19;;;;;;;29.33;15.23;;;4.30;53.70;;;;;;4869954;28;115688;-83
2024/01/21 11:51:00;;;;;;;26.20;14.02;;;4.40;53.30;;;;;;4811923;28;117437;-83
2024/01/21 11:53:27;;;;;;;23.42;12.60;;;4.40;53.40;;;;;;4870988;28;115254;-82
2024/01/21 11:55:56;;;;;;;26.65;13.43;;;4.40;53.30;;;;;;4870225;28;114613;-82
2024/01/21 11:58:29;;;;;;;23.48;12.35;;;4.50;53.30;;;;;;4869867;28;115759;-83
2024/01/21 12:01:12;;;;;;;26.48;14.85;;;4.50;53.20;;;;;;4837392;28;117530;-82
2024/01/21 12:03:40;;;;;;;30.27;14.70;;;4.50;52.90;;;;;;4884162;28;114658;-81
2024/01/21 12:06:10;;;;;;;26.95;15.13;;;4.40;52.70;;;;;;4861033;28;114484;-83
2024/01/21 12:08:41;;;;;;;33.50;16.05;;;4.30;52.70;;;;;;4853791;28;115387;-83
2024/01/21 12:11:08;;;;;;;27.17;15.38;;;4.20;53.00;;;;;;4869744;28;114871;-82
2024/01/21 12:13:43;;;;;;;30.60;16.52;;;4.30;53.20;;;;;;4824076;28;114582;-83
2024/01/21 12:16:11;;;;;;;28.00;15.77;;;4.30;53.20;;;;;;4877832;28;114818;-82
2024/01/21 12:18:43;;;;;;;29.35;16.08;;;4.30;53.30;;;;;;4853870;28;115111;-83
2024/01/21 12:21:13;;;;;;;28.75;15.80;;;4.40;53.10;;;;;;4853127;28;115266;-83
2024/01/21 12:23:44;;;;;;;27.15;15.60;;;4.30;53.10;;;;;;4871130;28;114854;-81
2024/01/21 12:26:18;;;;;;;29.52;16.58;;;4.30;53.10;;;;;;4838757;28;114702;-83
2024/01/21 12:29:06;;;;;;;25.70;15.32;;;4.40;52.90;;;;;;4853384;28;117899;-83
2024/01/21 12:31:35;;;;;;;25.67;14.15;;;4.40;53.00;;;;;;4839530;28;116254;-83
2024/01/21 12:34:06;;;;;;;23.80;12.00;;;4.40;52.80;;;;;;4872932;28;114378;-82
2024/01/21 12:36:40;;;;;;;27.77;13.57;;;4.40;52.80;;;;;;4884222;28;114296;-82
2024/01/21 12:39:12;;;;;;;19.48;11.27;;;4.40;52.80;;;;;;4885779;28;115260;-83